Time,TemperatureF,DewpointF,PressureIn,WindDirection,WindDirectionDegrees,WindSpeedMPH,WindSpeedGustMPH,Humidity,HourlyPrecipIn,Conditions,Clouds,dailyrainin,SoftwareType,DateUTC
2013-02-07 00:01:00,53.0,43.0,30.00,WNW,296,2.0,-999.0,69,-99.99,,,-99.99,,2013-02-07 07:01:00,
2013-02-07 00:11:00,53.0,43.0,30.00,WNW,296,2.0,-999.0,69,-99.99,,,-99.99,,2013-02-07 07:11:00,
2013-02-07 00:21:00,54.0,43.0,30.01,ENE,68,1.0,-999.0,65,-99.99,,,-99.99,,2013-02-07 07:21:00,
2013-02-07 00:31:00,54.0,43.0,30.01,ENE,68,1.0,-999.0,65,-99.99,,,-99.99,,2013-02-07 07:31:00,
2013-02-07 00:41:00,54.0,43.0,30.01,ENE,68,1.0,-999.0,65,-99.99,,,-99.99,,2013-02-07 07:41:00,
2013-02-07 00:52:00,53.0,42.0,30.01,ENE,77,2.0,-999.0,65,-99.99,,,-99.99,,2013-02-07 07:52:00,
2013-02-07 01:01:00,53.0,43.0,30.01,East,80,2.0,-999.0,69,-99.99,,,-99.99,,2013-02-07 08:01:00,
2013-02-07 01:11:00,53.0,43.0,30.01,East,80,2.0,-999.0,69,-99.99,,,-99.99,,2013-02-07 08:11:00,
2013-02-07 01:21:00,52.0,39.0,30.01,ESE,103,4.0,-999.0,62,-99.99,,,-99.99,,2013-02-07 08:21:00,
2013-02-07 01:31:00,52.0,42.0,30.02,ESE,105,4.0,-999.0,69,-99.99,,,-99.99,,2013-02-07 08:31:00,
2013-02-07 01:41:00,52.0,42.0,30.02,ESE,105,4.0,-999.0,69,-99.99,,,-99.99,,2013-02-07 08:41:00,
2013-02-07 01:52:00,51.0,43.0,30.02,ESE,106,3.0,-999.0,73,-99.99,,,-99.99,,2013-02-07 08:52:00,
2013-02-07 02:01:00,51.0,43.0,30.03,ESE,106,2.0,-999.0,73,-99.99,,,-99.99,,2013-02-07 09:01:00,
2013-02-07 02:11:00,51.0,43.0,30.03,ESE,106,2.0,-999.0,73,-99.99,,,-99.99,,2013-02-07 09:11:00,
2013-02-07 02:21:00,49.0,39.0,30.03,ESE,106,2.0,-999.0,67,-99.99,,,-99.99,,2013-02-07 09:21:00,
2013-02-07 02:31:00,47.0,39.0,30.03,SE,138,3.0,-999.0,75,-99.99,,,-99.99,,2013-02-07 09:31:00,
2013-02-07 02:41:00,47.0,39.0,30.03,SE,138,3.0,-999.0,75,-99.99,,,-99.99,,2013-02-07 09:41:00,
2013-02-07 02:51:00,48.0,41.0,30.03,SE,138,0.0,-999.0,76,-99.99,,,-99.99,,2013-02-07 09:51:00,
2013-02-07 03:01:00,48.0,41.0,30.03,SE,138,0.0,-999.0,77,-99.99,,,-99.99,,2013-02-07 10:01:00,
2013-02-07 03:11:00,48.0,41.0,30.03,SE,138,0.0,-999.0,77,-99.99,,,-99.99,,2013-02-07 10:11:00,
2013-02-07 03:22:00,47.0,41.0,30.03,SE,138,0.0,-999.0,78,-99.99,,,-99.99,,2013-02-07 10:22:00,
2013-02-07 03:31:00,47.0,41.0,30.03,SE,138,1.0,-999.0,81,-99.99,,,-99.99,,2013-02-07 10:31:00,
2013-02-07 03:41:00,47.0,41.0,30.03,SE,138,1.0,-999.0,81,-99.99,,,-99.99,,2013-02-07 10:41:00,
2013-02-07 03:51:00,47.0,41.0,30.03,SE,138,0.0,-999.0,81,-99.99,,,-99.99,,2013-02-07 10:51:00,
2013-02-07 04:01:00,47.0,41.0,30.03,SE,138,0.0,-999.0,78,-99.99,,,-99.99,,2013-02-07 11:01:00,
2013-02-07 04:22:00,47.0,40.0,30.03,SE,138,0.0,-999.0,77,-99.99,,,-99.99,,2013-02-07 11:22:00,
2013-02-07 04:32:00,47.0,40.0,30.03,SE,138,0.0,-999.0,77,-99.99,,,-99.99,,2013-02-07 11:32:00,
2013-02-07 04:43:00,47.0,40.0,30.03,SE,138,0.0,-999.0,77,-99.99,,,-99.99,,2013-02-07 11:43:00,
2013-02-07 04:52:00,44.0,39.0,30.03,SE,138,0.0,-999.0,81,-99.99,,,-99.99,,2013-02-07 11:52:00,
2013-02-07 05:01:00,45.0,40.0,30.03,SE,138,0.0,-999.0,83,-99.99,,,-99.99,,2013-02-07 12:01:00,
2013-02-07 05:11:00,45.0,40.0,30.03,SE,138,0.0,-999.0,83,-99.99,,,-99.99,,2013-02-07 12:11:00,
2013-02-07 05:21:00,46.0,41.0,30.03,SE,138,1.0,-999.0,82,-99.99,,,-99.99,,2013-02-07 12:21:00,
2013-02-07 05:32:00,46.0,41.0,30.03,SE,138,2.0,-999.0,83,-99.99,,,-99.99,,2013-02-07 12:32:00,
2013-02-07 05:41:00,46.0,41.0,30.03,SE,138,2.0,-999.0,83,-99.99,,,-99.99,,2013-02-07 12:41:00,
2013-02-07 05:52:00,47.0,43.0,30.03,SE,138,2.0,-999.0,85,-99.99,,,-99.99,,2013-02-07 12:52:00,
2013-02-07 06:02:00,47.0,43.0,30.03,SE,138,1.0,-999.0,85,-99.99,,,-99.99,,2013-02-07 13:02:00,
2013-02-07 06:11:00,47.0,43.0,30.03,SE,138,1.0,-999.0,85,-99.99,,,-99.99,,2013-02-07 13:11:00,
2013-02-07 06:21:00,45.0,40.0,30.04,SE,138,0.0,-999.0,84,-99.99,,,-99.99,,2013-02-07 13:21:00,
2013-02-07 06:32:00,45.0,40.0,30.04,SE,138,2.0,-999.0,84,-99.99,,,-99.99,,2013-02-07 13:32:00,
2013-02-07 06:41:00,45.0,40.0,30.04,SE,138,2.0,-999.0,84,-99.99,,,-99.99,,2013-02-07 13:41:00,
2013-02-07 06:51:00,45.0,40.0,30.04,SE,137,4.0,-999.0,84,-99.99,,,-99.99,,2013-02-07 13:51:00,
2013-02-07 07:01:00,44.0,40.0,30.05,SE,137,4.0,-999.0,85,-99.99,,,-99.99,,2013-02-07 14:01:00,
2013-02-07 07:11:00,44.0,40.0,30.05,SE,137,4.0,-999.0,85,-99.99,,,-99.99,,2013-02-07 14:11:00,
2013-02-07 07:21:00,44.0,40.0,30.05,SE,136,4.0,-999.0,86,-99.99,,,-99.99,,2013-02-07 14:21:00,
2013-02-07 07:32:00,43.0,39.0,30.05,SE,140,5.0,-999.0,86,-99.99,,,-99.99,,2013-02-07 14:32:00,
2013-02-07 07:41:00,43.0,39.0,30.05,SE,140,5.0,-999.0,86,-99.99,,,-99.99,,2013-02-07 14:41:00,
2013-02-07 07:52:00,43.0,39.0,30.05,SE,140,5.0,-999.0,86,-99.99,,,-99.99,,2013-02-07 14:52:00,
2013-02-07 08:01:00,44.0,41.0,30.06,SE,124,6.0,-999.0,88,-99.99,,,-99.99,,2013-02-07 15:01:00,
2013-02-07 08:11:00,44.0,41.0,30.06,SE,124,6.0,-999.0,88,-99.99,,,-99.99,,2013-02-07 15:11:00,
2013-02-07 08:21:00,44.0,41.0,30.07,ESE,123,7.0,-999.0,89,-99.99,,,-99.99,,2013-02-07 15:21:00,
2013-02-07 08:31:00,46.0,43.0,30.08,SE,127,7.0,-999.0,89,-99.99,,,-99.99,,2013-02-07 15:31:00,
2013-02-07 08:41:00,46.0,43.0,30.08,SE,127,7.0,-999.0,89,-99.99,,,-99.99,,2013-02-07 15:41:00,
2013-02-07 08:52:00,47.0,43.0,30.08,SE,131,6.0,-999.0,85,-99.99,,,-99.99,,2013-02-07 15:52:00,
2013-02-07 09:01:00,49.0,44.0,30.09,SE,131,5.0,-999.0,84,-99.99,,,-99.99,,2013-02-07 16:01:00,
2013-02-07 09:11:00,49.0,44.0,30.09,SE,131,5.0,-999.0,84,-99.99,,,-99.99,,2013-02-07 16:11:00,
2013-02-07 09:21:00,50.0,44.0,30.09,SE,132,6.0,-999.0,81,-99.99,,,-99.99,,2013-02-07 16:21:00,
2013-02-07 09:31:00,52.0,45.0,30.09,SE,135,6.0,-999.0,78,-99.99,,,-99.99,,2013-02-07 16:31:00,
2013-02-07 09:41:00,52.0,45.0,30.09,SE,135,6.0,-999.0,78,-99.99,,,-99.99,,2013-02-07 16:41:00,
2013-02-07 09:52:00,53.0,45.0,30.09,ESE,115,6.0,-999.0,73,-99.99,,,-99.99,,2013-02-07 16:52:00,
2013-02-07 10:01:00,55.0,45.0,30.09,ESE,120,7.0,-999.0,68,-99.99,,,-99.99,,2013-02-07 17:01:00,
2013-02-07 10:11:00,55.0,45.0,30.09,ESE,120,7.0,-999.0,68,-99.99,,,-99.99,,2013-02-07 17:11:00,
2013-02-07 10:21:00,56.0,45.0,30.09,ESE,121,6.0,-999.0,67,-99.99,,,-99.99,,2013-02-07 17:21:00,
2013-02-07 10:31:00,58.0,47.0,30.09,SE,130,5.0,-999.0,67,-99.99,,,-99.99,,2013-02-07 17:31:00,
2013-02-07 10:41:00,58.0,47.0,30.09,SE,130,5.0,-999.0,67,-99.99,,,-99.99,,2013-02-07 17:41:00,
2013-02-07 10:52:00,60.0,47.0,30.09,ESE,113,5.0,-999.0,63,-99.99,,,-99.99,,2013-02-07 17:52:00,
2013-02-07 11:01:00,61.0,47.0,30.09,ESE,119,6.0,-999.0,61,-99.99,,,-99.99,,2013-02-07 18:01:00,
2013-02-07 11:11:00,61.0,47.0,30.09,ESE,119,6.0,-999.0,61,-99.99,,,-99.99,,2013-02-07 18:11:00,
2013-02-07 11:22:00,62.0,47.0,30.08,ESE,123,4.0,-999.0,58,-99.99,,,-99.99,,2013-02-07 18:22:00,
2013-02-07 11:31:00,64.0,48.0,30.08,ESE,121,4.0,-999.0,56,-99.99,,,-99.99,,2013-02-07 18:31:00,
2013-02-07 11:41:00,64.0,48.0,30.08,ESE,121,4.0,-999.0,56,-99.99,,,-99.99,,2013-02-07 18:41:00,
2013-02-07 11:51:00,64.0,47.0,30.08,SE,127,6.0,-999.0,55,-99.99,,,-99.99,,2013-02-07 18:51:00,
2013-02-07 12:01:00,65.0,49.0,30.08,SE,127,4.0,-999.0,56,-99.99,,,-99.99,,2013-02-07 19:01:00,
2013-02-07 12:11:00,65.0,49.0,30.08,SE,127,4.0,-999.0,56,-99.99,,,-99.99,,2013-02-07 19:11:00,
2013-02-07 12:21:00,66.0,47.0,30.07,ESE,107,2.0,-999.0,51,-99.99,,,-99.99,,2013-02-07 19:21:00,
2013-02-07 12:31:00,67.0,48.0,30.06,ESE,119,3.0,-999.0,51,-99.99,,,-99.99,,2013-02-07 19:31:00,
2013-02-07 12:41:00,67.0,48.0,30.06,ESE,119,3.0,-999.0,51,-99.99,,,-99.99,,2013-02-07 19:41:00,
2013-02-07 12:51:00,68.0,46.0,30.05,East,101,3.0,-999.0,45,-99.99,,,-99.99,,2013-02-07 19:51:00,
2013-02-07 13:01:00,69.0,48.0,30.04,ESE,111,4.0,-999.0,47,-99.99,,,-99.99,,2013-02-07 20:01:00,
2013-02-07 13:11:00,69.0,48.0,30.04,ESE,111,4.0,-999.0,47,-99.99,,,-99.99,,2013-02-07 20:11:00,
2013-02-07 13:21:00,70.0,43.0,30.03,ESE,107,3.0,-999.0,38,-99.99,,,-99.99,,2013-02-07 20:21:00,
2013-02-07 13:31:00,71.0,40.0,30.02,ENE,78,2.0,-999.0,33,-99.99,,,-99.99,,2013-02-07 20:31:00,
2013-02-07 13:41:00,71.0,40.0,30.02,ENE,78,2.0,-999.0,33,-99.99,,,-99.99,,2013-02-07 20:41:00,
2013-02-07 13:52:00,71.0,40.0,30.01,ESE,123,3.0,-999.0,33,-99.99,,,-99.99,,2013-02-07 20:52:00,
2013-02-07 14:01:00,73.0,44.0,30.01,SE,126,2.0,-999.0,36,-99.99,,,-99.99,,2013-02-07 21:01:00,
2013-02-07 14:11:00,73.0,44.0,30.01,SE,126,2.0,-999.0,36,-99.99,,,-99.99,,2013-02-07 21:11:00,
2013-02-07 14:21:00,73.0,41.0,30.00,SE,126,0.0,-999.0,32,-99.99,,,-99.99,,2013-02-07 21:21:00,
2013-02-07 14:31:00,74.0,43.0,29.99,ESE,119,2.0,-999.0,33,-99.99,,,-99.99,,2013-02-07 21:31:00,
2013-02-07 14:41:00,74.0,43.0,29.99,ESE,119,2.0,-999.0,33,-99.99,,,-99.99,,2013-02-07 21:41:00,
2013-02-07 14:52:00,75.0,41.0,29.98,South,187,2.0,-999.0,29,-99.99,,,-99.99,,2013-02-07 21:52:00,
2013-02-07 15:01:00,75.0,40.0,29.98,SSW,200,2.0,-999.0,28,-99.99,,,-99.99,,2013-02-07 22:01:00,
2013-02-07 15:11:00,75.0,40.0,29.98,SSW,200,2.0,-999.0,28,-99.99,,,-99.99,,2013-02-07 22:11:00,
2013-02-07 15:21:00,75.0,41.0,29.97,SW,234,1.0,-999.0,29,-99.99,,,-99.99,,2013-02-07 22:21:00,
2013-02-07 15:31:00,75.0,39.0,29.96,SW,234,1.0,-999.0,27,-99.99,,,-99.99,,2013-02-07 22:31:00,
2013-02-07 15:42:00,75.0,39.0,29.96,SW,234,1.0,-999.0,27,-99.99,,,-99.99,,2013-02-07 22:42:00,
2013-02-07 15:52:00,75.0,39.0,29.96,WSW,258,1.0,-999.0,27,-99.99,,,-99.99,,2013-02-07 22:52:00,
2013-02-07 16:01:00,76.0,42.0,29.95,SW,223,1.0,-999.0,30,-99.99,,,-99.99,,2013-02-07 23:01:00,
2013-02-07 16:11:00,76.0,42.0,29.95,SW,223,1.0,-999.0,30,-99.99,,,-99.99,,2013-02-07 23:11:00,
2013-02-07 16:21:00,77.0,39.0,29.95,North,350,0.0,-999.0,26,-99.99,,,-99.99,,2013-02-07 23:21:00,
2013-02-07 16:31:00,76.0,50.0,29.94,North,350,1.0,-999.0,40,-99.99,,,-99.99,,2013-02-07 23:31:00,
2013-02-07 16:41:00,76.0,50.0,29.94,North,350,1.0,-999.0,40,-99.99,,,-99.99,,2013-02-07 23:41:00,
2013-02-07 16:52:00,74.0,45.0,29.94,North,350,2.0,-999.0,35,-99.99,,,-99.99,,2013-02-07 23:52:00,
2013-02-07 17:01:00,74.0,49.0,29.93,North,355,2.0,-999.0,41,-99.99,,,-99.99,,2013-02-08 00:01:00,
2013-02-07 17:21:00,74.0,50.0,29.93,North,355,1.0,-999.0,43,-99.99,,,-99.99,,2013-02-08 00:21:00,
2013-02-07 17:31:00,74.0,41.0,29.93,North,355,1.0,-999.0,30,-99.99,,,-99.99,,2013-02-08 00:31:00,
2013-02-07 17:41:00,74.0,41.0,29.93,North,355,1.0,-999.0,30,-99.99,,,-99.99,,2013-02-08 00:41:00,
2013-02-07 17:52:00,71.0,45.0,29.93,NNW,327,3.0,-999.0,40,-99.99,,,-99.99,,2013-02-08 00:52:00,
2013-02-07 18:01:00,69.0,47.0,29.93,NNW,327,3.0,-999.0,46,-99.99,,,-99.99,,2013-02-08 01:01:00,
2013-02-07 18:21:00,69.0,46.0,29.92,NNW,327,4.0,-999.0,43,-99.99,,,-99.99,,2013-02-08 01:21:00,
2013-02-07 18:31:00,67.0,41.0,29.92,NNW,327,3.0,-999.0,38,-99.99,,,-99.99,,2013-02-08 01:31:00,
2013-02-07 18:41:00,67.0,41.0,29.92,NNW,327,3.0,-999.0,38,-99.99,,,-99.99,,2013-02-08 01:41:00,
2013-02-07 18:52:00,67.0,37.0,29.92,NNW,327,3.0,-999.0,33,-99.99,,,-99.99,,2013-02-08 01:52:00,
2013-02-07 19:01:00,67.0,36.0,29.92,NNW,327,2.0,-999.0,32,-99.99,,,-99.99,,2013-02-08 02:01:00,
2013-02-07 19:11:00,67.0,36.0,29.92,NNW,327,2.0,-999.0,32,-99.99,,,-99.99,,2013-02-08 02:11:00,
2013-02-07 19:21:00,64.0,38.0,29.93,NW,323,2.0,-999.0,38,-99.99,,,-99.99,,2013-02-08 02:21:00,
2013-02-07 19:31:00,66.0,36.0,29.92,NW,323,1.0,-999.0,33,-99.99,,,-99.99,,2013-02-08 02:31:00,
2013-02-07 19:42:00,66.0,36.0,29.92,NW,323,1.0,-999.0,33,-99.99,,,-99.99,,2013-02-08 02:42:00,
2013-02-07 19:52:00,63.0,46.0,29.92,ESE,108,1.0,-999.0,53,-99.99,,,-99.99,,2013-02-08 02:52:00,
2013-02-07 20:01:00,62.0,39.0,29.92,ESE,108,0.0,-999.0,42,-99.99,,,-99.99,,2013-02-08 03:01:00,
2013-02-07 20:11:00,62.0,39.0,29.92,ESE,108,0.0,-999.0,42,-99.99,,,-99.99,,2013-02-08 03:11:00,
2013-02-07 20:22:00,62.0,41.0,29.92,ESE,108,0.0,-999.0,46,-99.99,,,-99.99,,2013-02-08 03:22:00,
2013-02-07 20:31:00,61.0,40.0,29.91,ESE,114,0.0,-999.0,46,-99.99,,,-99.99,,2013-02-08 03:31:00,
2013-02-07 20:41:00,61.0,40.0,29.91,ESE,114,0.0,-999.0,46,-99.99,,,-99.99,,2013-02-08 03:41:00,
2013-02-07 20:52:00,59.0,39.0,29.92,South,169,0.0,-999.0,48,-99.99,,,-99.99,,2013-02-08 03:52:00,
2013-02-07 21:01:00,59.0,45.0,29.91,South,169,0.0,-999.0,60,-99.99,,,-99.99,,2013-02-08 04:01:00,
2013-02-07 21:21:00,59.0,46.0,29.91,SSE,168,1.0,-999.0,63,-99.99,,,-99.99,,2013-02-08 04:21:00,
2013-02-07 21:31:00,58.0,39.0,29.91,ESE,121,4.0,-999.0,49,-99.99,,,-99.99,,2013-02-08 04:31:00,
2013-02-07 21:41:00,58.0,39.0,29.91,ESE,121,4.0,-999.0,49,-99.99,,,-99.99,,2013-02-08 04:41:00,
2013-02-07 21:52:00,59.0,41.0,29.91,East,99,4.0,-999.0,51,-99.99,,,-99.99,,2013-02-08 04:52:00,
2013-02-07 22:01:00,59.0,37.0,29.91,East,96,5.0,-999.0,43,-99.99,,,-99.99,,2013-02-08 05:01:00,
2013-02-07 22:11:00,59.0,37.0,29.91,East,96,5.0,-999.0,43,-99.99,,,-99.99,,2013-02-08 05:11:00,
2013-02-07 22:22:00,59.0,44.0,29.90,East,97,1.0,-999.0,58,-99.99,,,-99.99,,2013-02-08 05:22:00,
2013-02-07 22:31:00,58.0,41.0,29.91,ESE,117,4.0,-999.0,53,-99.99,,,-99.99,,2013-02-08 05:31:00,
2013-02-07 22:41:00,58.0,41.0,29.91,ESE,117,4.0,-999.0,53,-99.99,,,-99.99,,2013-02-08 05:41:00,
2013-02-07 22:52:00,58.0,44.0,29.90,ESE,119,3.0,-999.0,59,-99.99,,,-99.99,,2013-02-08 05:52:00,
2013-02-07 23:01:00,57.0,37.0,29.90,ESE,111,4.0,-999.0,47,-99.99,,,-99.99,,2013-02-08 06:01:00,
2013-02-07 23:11:00,57.0,37.0,29.90,ESE,111,4.0,-999.0,47,-99.99,,,-99.99,,2013-02-08 06:11:00,
2013-02-07 23:21:00,57.0,38.0,29.89,East,98,5.0,-999.0,49,-99.99,,,-99.99,,2013-02-08 06:21:00,
2013-02-07 23:31:00,58.0,39.0,29.89,ESE,104,5.0,-999.0,49,-99.99,,,-99.99,,2013-02-08 06:31:00,
2013-02-07 23:41:00,58.0,39.0,29.89,ESE,104,5.0,-999.0,49,-99.99,,,-99.99,,2013-02-08 06:41:00,
2013-02-07 23:52:00,58.0,39.0,29.89,ESE,103,4.0,-999.0,50,-99.99,,,-99.99,,2013-02-08 06:52:00,